sensor_id;sensor_type;location;lat;lon;timestamp;temperature;humidity
17333;DHT22;8784;50.94667800;7.08448400;2022-11-20T00:01:32;5.30;99.90
17333;DHT22;8784;50.94667800;7.08448400;2022-11-20T00:03:59;5.30;99.90
17333;DHT22;8784;50.94667800;7.08448400;2022-11-20T00:06:29;5.30;99.90
17333;DHT22;8784;50.94667800;7.08448400;2022-11-20T00:08:57;5.20;99.90
17333;DHT22;8784;50.94667800;7.08448400;2022-11-20T00:11:26;5.10;99.90
17333;DHT22;8784;50.94667800;7.08448400;2022-11-20T00:13:55;5.10;99.90
17333;DHT22;8784;50.94667800;7.08448400;2022-11-20T00:16:25;5.00;99.90
17333;DHT22;8784;50.94667800;7.08448400;2022-11-20T00:18:52;5.00;99.90
17333;DHT22;8784;50.94667800;7.08448400;2022-11-20T00:21:20;5.00;99.90
17333;DHT22;8784;50.94667800;7.08448400;2022-11-20T00:23:49;5.10;99.90
17333;DHT22;8784;50.94667800;7.08448400;2022-11-20T00:26:18;5.10;99.90
17333;DHT22;8784;50.94667800;7.08448400;2022-11-20T00:28:49;5.20;99.90
17333;DHT22;8784;50.94667800;7.08448400;2022-11-20T00:31:17;5.20;99.90
17333;DHT22;8784;50.94667800;7.08448400;2022-11-20T00:33:45;5.10;99.90
17333;DHT22;8784;50.94667800;7.08448400;2022-11-20T00:36:13;5.10;99.90
17333;DHT22;8784;50.94667800;7.08448400;2022-11-20T00:38:41;5.10;99.90
17333;DHT22;8784;50.94667800;7.08448400;2022-11-20T00:41:11;5.00;99.90
17333;DHT22;8784;50.94667800;7.08448400;2022-11-20T00:43:38;5.10;99.90
17333;DHT22;8784;50.94667800;7.08448400;2022-11-20T00:46:07;5.20;99.90
17333;DHT22;8784;50.94667800;7.08448400;2022-11-20T00:48:34;5.20;99.90
17333;DHT22;8784;50.94667800;7.08448400;2022-11-20T00:51:01;5.20;99.90
17333;DHT22;8784;50.94667800;7.08448400;2022-11-20T00:53:28;5.20;99.90
17333;DHT22;8784;50.94667800;7.08448400;2022-11-20T00:55:56;5.20;99.90
17333;DHT22;8784;50.94667800;7.08448400;2022-11-20T00:58:28;5.20;99.90
17333;DHT22;8784;50.94667800;7.08448400;2022-11-20T01:00:59;5.20;99.90
17333;DHT22;8784;50.94667800;7.08448400;2022-11-20T01:03:26;5.30;99.90
17333;DHT22;8784;50.94667800;7.08448400;2022-11-20T01:05:53;5.20;99.90
17333;DHT22;8784;50.94667800;7.08448400;2022-11-20T01:08:20;5.10;99.90
17333;DHT22;8784;50.94667800;7.08448400;2022-11-20T01:10:47;5.00;99.90
17333;DHT22;8784;50.94667800;7.08448400;2022-11-20T01:13:17;4.90;99.90
17333;DHT22;8784;50.94667800;7.08448400;2022-11-20T01:16:04;4.90;99.90
17333;DHT22;8784;50.94667800;7.08448400;2022-11-20T01:18:32;5.00;99.90
17333;DHT22;8784;50.94667800;7.08448400;2022-11-20T01:21:03;5.00;99.90
17333;DHT22;8784;50.94667800;7.08448400;2022-11-20T01:23:32;5.10;99.90
17333;DHT22;8784;50.94667800;7.08448400;2022-11-20T01:26:00;5.10;99.90
17333;DHT22;8784;50.94667800;7.08448400;2022-11-20T01:28:30;5.10;99.90
17333;DHT22;8784;50.94667800;7.08448400;2022-11-20T01:30:57;5.20;99.90
17333;DHT22;8784;50.94667800;7.08448400;2022-11-20T01:33:26;5.30;99.90
17333;DHT22;8784;50.94667800;7.08448400;2022-11-20T01:35:53;5.30;99.90
17333;DHT22;8784;50.94667800;7.08448400;2022-11-20T01:38:20;5.30;99.90
17333;DHT22;8784;50.94667800;7.08448400;2022-11-20T01:40:54;5.40;99.90
17333;DHT22;8784;50.94667800;7.08448400;2022-11-20T01:43:21;5.40;99.90
17333;DHT22;8784;50.94667800;7.08448400;2022-11-20T01:48:37;5.40;99.90
17333;DHT22;8784;50.94667800;7.08448400;2022-11-20T01:51:10;5.40;99.90
17333;DHT22;8784;50.94667800;7.08448400;2022-11-20T01:53:39;5.40;99.90
17333;DHT22;8784;50.94667800;7.08448400;2022-11-20T01:56:08;5.40;99.90
17333;DHT22;8784;50.94667800;7.08448400;2022-11-20T01:58:38;5.40;99.90
17333;DHT22;8784;50.94667800;7.08448400;2022-11-20T02:01:08;5.30;99.90
17333;DHT22;8784;50.94667800;7.08448400;2022-11-20T02:03:37;5.40;99.90
17333;DHT22;8784;50.94667800;7.08448400;2022-11-20T02:06:10;5.40;99.90
17333;DHT22;8784;50.94667800;7.08448400;2022-11-20T02:08:40;5.40;99.90
17333;DHT22;8784;50.94667800;7.08448400;2022-11-20T02:11:10;5.30;99.90
17333;DHT22;8784;50.94667800;7.08448400;2022-11-20T02:13:38;5.40;99.90
17333;DHT22;8784;50.94667800;7.08448400;2022-11-20T02:16:19;5.40;99.90
17333;DHT22;8784;50.94667800;7.08448400;2022-11-20T02:18:49;5.30;99.90
17333;DHT22;8784;50.94667800;7.08448400;2022-11-20T02:21:26;5.30;99.90
17333;DHT22;8784;50.94667800;7.08448400;2022-11-20T02:24:02;5.30;99.90
17333;DHT22;8784;50.94667800;7.08448400;2022-11-20T02:26:32;5.20;99.90
17333;DHT22;8784;50.94667800;7.08448400;2022-11-20T02:29:02;5.20;99.90
17333;DHT22;8784;50.94667800;7.08448400;2022-11-20T02:31:29;5.00;99.90
17333;DHT22;8784;50.94667800;7.08448400;2022-11-20T02:33:56;4.80;99.90
17333;DHT22;8784;50.94667800;7.08448400;2022-11-20T02:36:25;4.70;99.90
17333;DHT22;8784;50.94667800;7.08448400;2022-11-20T02:38:53;4.70;99.90
17333;DHT22;8784;50.94667800;7.08448400;2022-11-20T02:41:21;4.70;99.90
17333;DHT22;8784;50.94667800;7.08448400;2022-11-20T02:43:48;4.70;99.90
17333;DHT22;8784;50.94667800;7.08448400;2022-11-20T02:46:15;4.90;99.90
17333;DHT22;8784;50.94667800;7.08448400;2022-11-20T02:48:42;4.90;99.90
17333;DHT22;8784;50.94667800;7.08448400;2022-11-20T02:51:09;5.10;99.90
17333;DHT22;8784;50.94667800;7.08448400;2022-11-20T02:53:35;5.10;99.90
17333;DHT22;8784;50.94667800;7.08448400;2022-11-20T02:56:03;5.10;99.90
17333;DHT22;8784;50.94667800;7.08448400;2022-11-20T02:58:31;5.10;99.90
17333;DHT22;8784;50.94667800;7.08448400;2022-11-20T03:00:58;5.10;99.90
17333;DHT22;8784;50.94667800;7.08448400;2022-11-20T03:03:25;5.10;99.90
17333;DHT22;8784;50.94667800;7.08448400;2022-11-20T03:05:52;5.20;99.90
17333;DHT22;8784;50.94667800;7.08448400;2022-11-20T03:08:21;5.10;99.90
17333;DHT22;8784;50.94667800;7.08448400;2022-11-20T03:10:48;5.10;99.90
17333;DHT22;8784;50.94667800;7.08448400;2022-11-20T03:13:15;5.20;99.90
17333;DHT22;8784;50.94667800;7.08448400;2022-11-20T03:15:43;5.20;99.90
17333;DHT22;8784;50.94667800;7.08448400;2022-11-20T03:18:10;5.20;99.90
17333;DHT22;8784;50.94667800;7.08448400;2022-11-20T03:20:39;5.30;99.90
17333;DHT22;8784;50.94667800;7.08448400;2022-11-20T03:23:06;5.20;99.90
17333;DHT22;8784;50.94667800;7.08448400;2022-11-20T03:25:33;5.30;99.90
17333;DHT22;8784;50.94667800;7.08448400;2022-11-20T03:27:59;5.20;99.90
17333;DHT22;8784;50.94667800;7.08448400;2022-11-20T03:30:26;5.30;99.90
17333;DHT22;8784;50.94667800;7.08448400;2022-11-20T03:32:54;5.20;99.90
17333;DHT22;8784;50.94667800;7.08448400;2022-11-20T03:35:21;5.30;99.90
17333;DHT22;8784;50.94667800;7.08448400;2022-11-20T03:37:48;5.30;99.90
17333;DHT22;8784;50.94667800;7.08448400;2022-11-20T03:40:15;5.30;99.90
17333;DHT22;8784;50.94667800;7.08448400;2022-11-20T03:42:44;5.30;99.90
17333;DHT22;8784;50.94667800;7.08448400;2022-11-20T03:45:17;5.20;99.90
17333;DHT22;8784;50.94667800;7.08448400;2022-11-20T03:47:45;5.30;99.90
17333;DHT22;8784;50.94667800;7.08448400;2022-11-20T03:50:13;5.30;99.90
17333;DHT22;8784;50.94667800;7.08448400;2022-11-20T03:52:41;5.30;99.90
17333;DHT22;8784;50.94667800;7.08448400;2022-11-20T03:55:08;5.30;99.90
17333;DHT22;8784;50.94667800;7.08448400;2022-11-20T03:57:37;5.30;99.90
17333;DHT22;8784;50.94667800;7.08448400;2022-11-20T04:00:05;5.30;99.90
17333;DHT22;8784;50.94667800;7.08448400;2022-11-20T04:02:32;5.30;99.90
17333;DHT22;8784;50.94667800;7.08448400;2022-11-20T04:04:59;5.20;99.90
17333;DHT22;8784;50.94667800;7.08448400;2022-11-20T04:07:27;5.20;99.90
17333;DHT22;8784;50.94667800;7.08448400;2022-11-20T04:09:54;5.10;99.90
17333;DHT22;8784;50.94667800;7.08448400;2022-11-20T04:12:21;5.10;99.90
17333;DHT22;8784;50.94667800;7.08448400;2022-11-20T04:14:47;5.20;99.90
17333;DHT22;8784;50.94667800;7.08448400;2022-11-20T04:17:14;5.20;99.90
17333;DHT22;8784;50.94667800;7.08448400;2022-11-20T04:19:41;5.10;99.90
17333;DHT22;8784;50.94667800;7.08448400;2022-11-20T04:22:08;5.10;99.90
17333;DHT22;8784;50.94667800;7.08448400;2022-11-20T04:24:38;5.10;99.90
17333;DHT22;8784;50.94667800;7.08448400;2022-11-20T04:27:05;5.20;99.90
17333;DHT22;8784;50.94667800;7.08448400;2022-11-20T04:29:36;5.20;99.90
17333;DHT22;8784;50.94667800;7.08448400;2022-11-20T04:32:03;5.20;99.90
17333;DHT22;8784;50.94667800;7.08448400;2022-11-20T04:34:29;5.10;99.90
17333;DHT22;8784;50.94667800;7.08448400;2022-11-20T04:36:56;4.90;99.90
17333;DHT22;8784;50.94667800;7.08448400;2022-11-20T04:39:23;4.90;99.90
17333;DHT22;8784;50.94667800;7.08448400;2022-11-20T04:41:51;4.80;99.90
17333;DHT22;8784;50.94667800;7.08448400;2022-11-20T04:44:39;4.80;99.90
17333;DHT22;8784;50.94667800;7.08448400;2022-11-20T04:47:07;4.60;99.90
17333;DHT22;8784;50.94667800;7.08448400;2022-11-20T04:49:34;4.60;99.90
17333;DHT22;8784;50.94667800;7.08448400;2022-11-20T04:52:01;4.60;99.90
17333;DHT22;8784;50.94667800;7.08448400;2022-11-20T04:54:27;4.60;99.90
17333;DHT22;8784;50.94667800;7.08448400;2022-11-20T04:56:56;4.70;99.90
17333;DHT22;8784;50.94667800;7.08448400;2022-11-20T04:59:22;4.70;99.90
17333;DHT22;8784;50.94667800;7.08448400;2022-11-20T05:01:49;4.70;99.90
17333;DHT22;8784;50.94667800;7.08448400;2022-11-20T05:04:16;4.60;99.90
17333;DHT22;8784;50.94667800;7.08448400;2022-11-20T05:06:43;4.80;99.90
17333;DHT22;8784;50.94667800;7.08448400;2022-11-20T05:09:14;4.80;99.90
17333;DHT22;8784;50.94667800;7.08448400;2022-11-20T05:11:43;4.80;99.90
17333;DHT22;8784;50.94667800;7.08448400;2022-11-20T05:14:11;4.90;99.90
17333;DHT22;8784;50.94667800;7.08448400;2022-11-20T05:16:38;5.00;99.90
17333;DHT22;8784;50.94667800;7.08448400;2022-11-20T05:19:04;5.00;99.90
17333;DHT22;8784;50.94667800;7.08448400;2022-11-20T05:21:31;5.10;99.90
17333;DHT22;8784;50.94667800;7.08448400;2022-11-20T05:23:58;5.10;99.90
17333;DHT22;8784;50.94667800;7.08448400;2022-11-20T05:26:25;5.10;99.90
17333;DHT22;8784;50.94667800;7.08448400;2022-11-20T05:28:52;5.20;99.90
17333;DHT22;8784;50.94667800;7.08448400;2022-11-20T05:31:22;5.20;99.90
17333;DHT22;8784;50.94667800;7.08448400;2022-11-20T05:33:49;5.20;99.90
17333;DHT22;8784;50.94667800;7.08448400;2022-11-20T05:36:16;5.20;99.90
17333;DHT22;8784;50.94667800;7.08448400;2022-11-20T05:38:44;5.20;99.90
17333;DHT22;8784;50.94667800;7.08448400;2022-11-20T05:41:12;5.20;99.90
17333;DHT22;8784;50.94667800;7.08448400;2022-11-20T05:43:41;5.20;99.90
17333;DHT22;8784;50.94667800;7.08448400;2022-11-20T05:46:10;5.20;99.90
17333;DHT22;8784;50.94667800;7.08448400;2022-11-20T05:48:39;5.20;99.90
17333;DHT22;8784;50.94667800;7.08448400;2022-11-20T05:51:09;5.20;99.90
17333;DHT22;8784;50.94667800;7.08448400;2022-11-20T05:53:36;5.20;99.90
17333;DHT22;8784;50.94667800;7.08448400;2022-11-20T05:56:05;5.30;99.90
17333;DHT22;8784;50.94667800;7.08448400;2022-11-20T05:58:33;5.30;99.90
17333;DHT22;8784;50.94667800;7.08448400;2022-11-20T06:01:05;5.30;99.90
17333;DHT22;8784;50.94667800;7.08448400;2022-11-20T06:03:32;5.30;99.90
17333;DHT22;8784;50.94667800;7.08448400;2022-11-20T06:06:00;5.30;99.90
17333;DHT22;8784;50.94667800;7.08448400;2022-11-20T06:08:28;5.20;99.90
17333;DHT22;8784;50.94667800;7.08448400;2022-11-20T06:10:55;5.30;99.90
17333;DHT22;8784;50.94667800;7.08448400;2022-11-20T06:13:22;5.30;99.90
17333;DHT22;8784;50.94667800;7.08448400;2022-11-20T06:15:50;5.30;99.90
17333;DHT22;8784;50.94667800;7.08448400;2022-11-20T06:18:16;5.30;99.90
17333;DHT22;8784;50.94667800;7.08448400;2022-11-20T06:20:43;5.20;99.90
17333;DHT22;8784;50.94667800;7.08448400;2022-11-20T06:23:12;5.20;99.90
17333;DHT22;8784;50.94667800;7.08448400;2022-11-20T06:25:40;5.30;99.90
17333;DHT22;8784;50.94667800;7.08448400;2022-11-20T06:28:07;5.30;99.90
17333;DHT22;8784;50.94667800;7.08448400;2022-11-20T06:30:35;5.30;99.90
17333;DHT22;8784;50.94667800;7.08448400;2022-11-20T06:33:02;5.40;99.90
17333;DHT22;8784;50.94667800;7.08448400;2022-11-20T06:35:29;5.40;99.90
17333;DHT22;8784;50.94667800;7.08448400;2022-11-20T06:37:57;5.30;99.90
17333;DHT22;8784;50.94667800;7.08448400;2022-11-20T06:40:25;5.30;99.90
17333;DHT22;8784;50.94667800;7.08448400;2022-11-20T06:42:53;5.30;99.90
17333;DHT22;8784;50.94667800;7.08448400;2022-11-20T06:45:20;5.30;99.90
17333;DHT22;8784;50.94667800;7.08448400;2022-11-20T06:47:47;5.30;99.90
17333;DHT22;8784;50.94667800;7.08448400;2022-11-20T06:50:14;5.20;99.90
17333;DHT22;8784;50.94667800;7.08448400;2022-11-20T06:52:40;5.20;99.90
17333;DHT22;8784;50.94667800;7.08448400;2022-11-20T06:55:08;5.20;99.90
17333;DHT22;8784;50.94667800;7.08448400;2022-11-20T06:57:36;5.10;99.90
17333;DHT22;8784;50.94667800;7.08448400;2022-11-20T07:00:04;5.10;99.90
17333;DHT22;8784;50.94667800;7.08448400;2022-11-20T07:02:31;5.10;99.90
17333;DHT22;8784;50.94667800;7.08448400;2022-11-20T07:05:02;5.10;99.90
17333;DHT22;8784;50.94667800;7.08448400;2022-11-20T07:07:29;5.20;99.90
17333;DHT22;8784;50.94667800;7.08448400;2022-11-20T07:09:56;5.20;99.90
17333;DHT22;8784;50.94667800;7.08448400;2022-11-20T07:12:23;5.20;99.90
17333;DHT22;8784;50.94667800;7.08448400;2022-11-20T07:14:51;5.10;99.90
17333;DHT22;8784;50.94667800;7.08448400;2022-11-20T07:17:18;5.10;99.90
17333;DHT22;8784;50.94667800;7.08448400;2022-11-20T07:19:44;4.90;99.90
17333;DHT22;8784;50.94667800;7.08448400;2022-11-20T07:22:11;4.80;99.90
17333;DHT22;8784;50.94667800;7.08448400;2022-11-20T07:24:38;4.80;99.90
17333;DHT22;8784;50.94667800;7.08448400;2022-11-20T07:27:05;4.70;99.90
17333;DHT22;8784;50.94667800;7.08448400;2022-11-20T07:29:32;4.80;99.90
17333;DHT22;8784;50.94667800;7.08448400;2022-11-20T07:32:00;4.90;99.90
17333;DHT22;8784;50.94667800;7.08448400;2022-11-20T07:34:27;5.00;99.90
17333;DHT22;8784;50.94667800;7.08448400;2022-11-20T07:36:54;5.10;99.90
17333;DHT22;8784;50.94667800;7.08448400;2022-11-20T07:39:20;5.20;99.90
17333;DHT22;8784;50.94667800;7.08448400;2022-11-20T07:41:47;5.20;99.90
17333;DHT22;8784;50.94667800;7.08448400;2022-11-20T07:44:14;5.20;99.90
17333;DHT22;8784;50.94667800;7.08448400;2022-11-20T07:46:42;5.20;99.90
17333;DHT22;8784;50.94667800;7.08448400;2022-11-20T07:49:10;5.20;99.90
17333;DHT22;8784;50.94667800;7.08448400;2022-11-20T07:51:38;5.10;99.90
17333;DHT22;8784;50.94667800;7.08448400;2022-11-20T07:54:05;5.10;99.90
17333;DHT22;8784;50.94667800;7.08448400;2022-11-20T07:56:32;5.20;99.90
17333;DHT22;8784;50.94667800;7.08448400;2022-11-20T07:58:59;5.30;99.90
17333;DHT22;8784;50.94667800;7.08448400;2022-11-20T08:01:26;5.30;99.90
17333;DHT22;8784;50.94667800;7.08448400;2022-11-20T08:03:55;5.50;99.90
17333;DHT22;8784;50.94667800;7.08448400;2022-11-20T08:06:23;5.50;99.90
17333;DHT22;8784;50.94667800;7.08448400;2022-11-20T08:08:50;5.60;99.90
17333;DHT22;8784;50.94667800;7.08448400;2022-11-20T08:11:17;5.60;99.90
17333;DHT22;8784;50.94667800;7.08448400;2022-11-20T08:14:01;5.70;99.90
17333;DHT22;8784;50.94667800;7.08448400;2022-11-20T08:16:42;5.70;99.90
17333;DHT22;8784;50.94667800;7.08448400;2022-11-20T08:19:09;5.80;99.90
17333;DHT22;8784;50.94667800;7.08448400;2022-11-20T08:21:38;5.70;99.90
17333;DHT22;8784;50.94667800;7.08448400;2022-11-20T08:24:06;5.70;99.90
17333;DHT22;8784;50.94667800;7.08448400;2022-11-20T08:26:34;5.70;99.90
17333;DHT22;8784;50.94667800;7.08448400;2022-11-20T08:29:03;5.70;99.90
17333;DHT22;8784;50.94667800;7.08448400;2022-11-20T08:31:30;5.80;99.90
17333;DHT22;8784;50.94667800;7.08448400;2022-11-20T08:33:57;5.80;99.90
17333;DHT22;8784;50.94667800;7.08448400;2022-11-20T08:36:25;5.70;99.90
17333;DHT22;8784;50.94667800;7.08448400;2022-11-20T08:38:54;5.80;99.90
17333;DHT22;8784;50.94667800;7.08448400;2022-11-20T08:41:22;5.90;99.90
17333;DHT22;8784;50.94667800;7.08448400;2022-11-20T08:43:55;5.90;99.90
17333;DHT22;8784;50.94667800;7.08448400;2022-11-20T08:46:24;6.00;99.90
17333;DHT22;8784;50.94667800;7.08448400;2022-11-20T08:48:51;6.10;99.90
17333;DHT22;8784;50.94667800;7.08448400;2022-11-20T08:51:19;6.10;99.90
17333;DHT22;8784;50.94667800;7.08448400;2022-11-20T08:53:46;6.10;99.90
17333;DHT22;8784;50.94667800;7.08448400;2022-11-20T08:56:15;6.10;99.90
17333;DHT22;8784;50.94667800;7.08448400;2022-11-20T08:58:42;6.10;99.90
17333;DHT22;8784;50.94667800;7.08448400;2022-11-20T09:01:12;6.10;99.90
17333;DHT22;8784;50.94667800;7.08448400;2022-11-20T09:03:39;6.20;99.90
17333;DHT22;8784;50.94667800;7.08448400;2022-11-20T09:06:06;6.20;99.90
17333;DHT22;8784;50.94667800;7.08448400;2022-11-20T09:08:34;6.10;99.90
17333;DHT22;8784;50.94667800;7.08448400;2022-11-20T09:11:02;6.10;99.90
17333;DHT22;8784;50.94667800;7.08448400;2022-11-20T09:13:34;6.20;99.90
17333;DHT22;8784;50.94667800;7.08448400;2022-11-20T09:16:03;6.40;99.90
17333;DHT22;8784;50.94667800;7.08448400;2022-11-20T09:18:30;6.50;99.90
17333;DHT22;8784;50.94667800;7.08448400;2022-11-20T09:20:58;6.60;99.90
17333;DHT22;8784;50.94667800;7.08448400;2022-11-20T09:23:26;6.50;99.90
17333;DHT22;8784;50.94667800;7.08448400;2022-11-20T09:25:53;6.40;99.90
17333;DHT22;8784;50.94667800;7.08448400;2022-11-20T09:28:25;6.40;99.90
17333;DHT22;8784;50.94667800;7.08448400;2022-11-20T09:30:53;6.50;99.90
17333;DHT22;8784;50.94667800;7.08448400;2022-11-20T09:33:20;6.50;99.90
17333;DHT22;8784;50.94667800;7.08448400;2022-11-20T09:35:47;6.50;99.90
17333;DHT22;8784;50.94667800;7.08448400;2022-11-20T09:38:13;6.70;99.90
17333;DHT22;8784;50.94667800;7.08448400;2022-11-20T09:40:44;6.80;99.90
17333;DHT22;8784;50.94667800;7.08448400;2022-11-20T09:43:17;7.00;99.90
17333;DHT22;8784;50.94667800;7.08448400;2022-11-20T09:45:56;7.10;99.90
17333;DHT22;8784;50.94667800;7.08448400;2022-11-20T09:48:40;7.30;99.90
17333;DHT22;8784;50.94667800;7.08448400;2022-11-20T09:51:16;7.30;99.90
17333;DHT22;8784;50.94667800;7.08448400;2022-11-20T09:53:59;7.30;99.90
17333;DHT22;8784;50.94667800;7.08448400;2022-11-20T09:56:28;7.30;99.90
17333;DHT22;8784;50.94667800;7.08448400;2022-11-20T09:58:59;7.30;99.90
17333;DHT22;8784;50.94667800;7.08448400;2022-11-20T10:01:31;7.40;99.90
17333;DHT22;8784;50.94667800;7.08448400;2022-11-20T10:04:02;7.50;99.90
17333;DHT22;8784;50.94667800;7.08448400;2022-11-20T10:06:31;7.50;99.90
17333;DHT22;8784;50.94667800;7.08448400;2022-11-20T10:09:06;7.50;99.90
17333;DHT22;8784;50.94667800;7.08448400;2022-11-20T10:11:44;7.50;99.90
17333;DHT22;8784;50.94667800;7.08448400;2022-11-20T10:14:23;7.60;99.90
17333;DHT22;8784;50.94667800;7.08448400;2022-11-20T10:17:01;7.60;99.90
17333;DHT22;8784;50.94667800;7.08448400;2022-11-20T10:19:47;7.60;99.90
17333;DHT22;8784;50.94667800;7.08448400;2022-11-20T10:22:29;7.60;99.90
17333;DHT22;8784;50.94667800;7.08448400;2022-11-20T10:25:05;7.60;99.90
17333;DHT22;8784;50.94667800;7.08448400;2022-11-20T10:28:00;7.50;99.90
17333;DHT22;8784;50.94667800;7.08448400;2022-11-20T10:30:32;7.40;99.90
17333;DHT22;8784;50.94667800;7.08448400;2022-11-20T10:33:05;7.30;99.90
17333;DHT22;8784;50.94667800;7.08448400;2022-11-20T10:35:35;7.10;99.90
17333;DHT22;8784;50.94667800;7.08448400;2022-11-20T10:38:11;7.10;99.90
17333;DHT22;8784;50.94667800;7.08448400;2022-11-20T10:40:42;7.00;99.90
17333;DHT22;8784;50.94667800;7.08448400;2022-11-20T10:43:13;6.90;99.90
17333;DHT22;8784;50.94667800;7.08448400;2022-11-20T10:45:48;6.90;99.90
17333;DHT22;8784;50.94667800;7.08448400;2022-11-20T10:48:21;7.00;99.90
17333;DHT22;8784;50.94667800;7.08448400;2022-11-20T10:51:02;7.10;99.90
17333;DHT22;8784;50.94667800;7.08448400;2022-11-20T10:53:45;7.10;99.90
17333;DHT22;8784;50.94667800;7.08448400;2022-11-20T10:56:19;7.20;99.90
17333;DHT22;8784;50.94667800;7.08448400;2022-11-20T10:59:00;7.30;99.90
17333;DHT22;8784;50.94667800;7.08448400;2022-11-20T11:01:28;7.20;99.90
17333;DHT22;8784;50.94667800;7.08448400;2022-11-20T11:03:57;7.30;99.90
17333;DHT22;8784;50.94667800;7.08448400;2022-11-20T11:06:29;7.40;99.90
17333;DHT22;8784;50.94667800;7.08448400;2022-11-20T11:09:02;7.40;99.90
17333;DHT22;8784;50.94667800;7.08448400;2022-11-20T11:11:33;7.30;99.90
17333;DHT22;8784;50.94667800;7.08448400;2022-11-20T11:14:07;7.20;99.90
17333;DHT22;8784;50.94667800;7.08448400;2022-11-20T11:16:34;7.30;99.90
17333;DHT22;8784;50.94667800;7.08448400;2022-11-20T11:19:07;7.30;99.90
17333;DHT22;8784;50.94667800;7.08448400;2022-11-20T11:21:34;7.10;99.90
17333;DHT22;8784;50.94667800;7.08448400;2022-11-20T11:24:19;7.10;99.90
17333;DHT22;8784;50.94667800;7.08448400;2022-11-20T11:26:52;7.00;99.90
17333;DHT22;8784;50.94667800;7.08448400;2022-11-20T11:29:19;7.00;99.90
17333;DHT22;8784;50.94667800;7.08448400;2022-11-20T11:31:46;7.00;99.90
17333;DHT22;8784;50.94667800;7.08448400;2022-11-20T11:34:16;7.10;99.90
17333;DHT22;8784;50.94667800;7.08448400;2022-11-20T11:36:50;7.10;99.90
17333;DHT22;8784;50.94667800;7.08448400;2022-11-20T11:39:20;7.10;99.90
17333;DHT22;8784;50.94667800;7.08448400;2022-11-20T11:41:47;7.10;99.90
17333;DHT22;8784;50.94667800;7.08448400;2022-11-20T11:44:17;7.10;99.90
17333;DHT22;8784;50.94667800;7.08448400;2022-11-20T11:47:04;7.10;99.90
17333;DHT22;8784;50.94667800;7.08448400;2022-11-20T11:49:33;7.10;99.90
17333;DHT22;8784;50.94667800;7.08448400;2022-11-20T11:52:04;7.10;99.90
17333;DHT22;8784;50.94667800;7.08448400;2022-11-20T11:54:38;7.10;99.90
17333;DHT22;8784;50.94667800;7.08448400;2022-11-20T11:57:14;7.10;99.90
17333;DHT22;8784;50.94667800;7.08448400;2022-11-20T11:59:51;7.20;99.90
17333;DHT22;8784;50.94667800;7.08448400;2022-11-20T12:02:31;7.10;99.90
17333;DHT22;8784;50.94667800;7.08448400;2022-11-20T12:05:08;7.20;99.90
17333;DHT22;8784;50.94667800;7.08448400;2022-11-20T12:07:41;7.20;99.90
17333;DHT22;8784;50.94667800;7.08448400;2022-11-20T12:10:16;7.10;99.90
17333;DHT22;8784;50.94667800;7.08448400;2022-11-20T12:12:49;7.00;99.90
17333;DHT22;8784;50.94667800;7.08448400;2022-11-20T12:15:26;7.00;99.90
17333;DHT22;8784;50.94667800;7.08448400;2022-11-20T12:17:53;7.00;99.90
17333;DHT22;8784;50.94667800;7.08448400;2022-11-20T12:20:24;7.10;99.90
17333;DHT22;8784;50.94667800;7.08448400;2022-11-20T12:22:56;6.90;99.90
17333;DHT22;8784;50.94667800;7.08448400;2022-11-20T12:25:30;7.10;99.90
17333;DHT22;8784;50.94667800;7.08448400;2022-11-20T12:28:31;7.10;99.90
17333;DHT22;8784;50.94667800;7.08448400;2022-11-20T12:31:14;7.00;99.90
17333;DHT22;8784;50.94667800;7.08448400;2022-11-20T12:33:55;7.00;99.90
17333;DHT22;8784;50.94667800;7.08448400;2022-11-20T12:36:35;7.00;99.90
17333;DHT22;8784;50.94667800;7.08448400;2022-11-20T12:39:27;7.00;99.90
17333;DHT22;8784;50.94667800;7.08448400;2022-11-20T12:45:25;7.20;99.90
17333;DHT22;8784;50.94667800;7.08448400;2022-11-20T12:51:20;7.30;99.90
17333;DHT22;8784;50.94667800;7.08448400;2022-11-20T12:54:02;7.40;99.90
17333;DHT22;8784;50.94667800;7.08448400;2022-11-20T12:56:39;7.40;99.90
17333;DHT22;8784;50.94667800;7.08448400;2022-11-20T12:59:22;7.40;99.90
17333;DHT22;8784;50.94667800;7.08448400;2022-11-20T13:01:53;7.30;99.90
17333;DHT22;8784;50.94667800;7.08448400;2022-11-20T13:04:34;7.40;99.90
17333;DHT22;8784;50.94667800;7.08448400;2022-11-20T13:07:10;7.30;99.90
17333;DHT22;8784;50.94667800;7.08448400;2022-11-20T13:09:42;7.40;99.90
17333;DHT22;8784;50.94667800;7.08448400;2022-11-20T13:12:15;7.50;99.90
17333;DHT22;8784;50.94667800;7.08448400;2022-11-20T13:14:50;7.60;99.90
17333;DHT22;8784;50.94667800;7.08448400;2022-11-20T13:17:22;7.70;99.90
17333;DHT22;8784;50.94667800;7.08448400;2022-11-20T13:19:53;7.70;99.90
17333;DHT22;8784;50.94667800;7.08448400;2022-11-20T13:22:27;7.70;99.90
17333;DHT22;8784;50.94667800;7.08448400;2022-11-20T13:24:56;7.80;99.90
17333;DHT22;8784;50.94667800;7.08448400;2022-11-20T13:27:23;7.80;99.90
17333;DHT22;8784;50.94667800;7.08448400;2022-11-20T13:30:10;7.80;99.90
17333;DHT22;8784;50.94667800;7.08448400;2022-11-20T13:32:48;7.90;99.90
17333;DHT22;8784;50.94667800;7.08448400;2022-11-20T13:35:28;7.90;99.90
17333;DHT22;8784;50.94667800;7.08448400;2022-11-20T13:38:01;7.80;99.90
17333;DHT22;8784;50.94667800;7.08448400;2022-11-20T13:40:30;7.90;99.90
17333;DHT22;8784;50.94667800;7.08448400;2022-11-20T13:43:07;7.90;99.90
17333;DHT22;8784;50.94667800;7.08448400;2022-11-20T13:45:34;8.00;99.90
17333;DHT22;8784;50.94667800;7.08448400;2022-11-20T13:48:04;8.00;99.90
17333;DHT22;8784;50.94667800;7.08448400;2022-11-20T13:50:48;8.00;99.90
17333;DHT22;8784;50.94667800;7.08448400;2022-11-20T13:53:41;8.00;99.90
17333;DHT22;8784;50.94667800;7.08448400;2022-11-20T13:56:18;7.80;99.90
17333;DHT22;8784;50.94667800;7.08448400;2022-11-20T13:58:55;7.60;99.90
17333;DHT22;8784;50.94667800;7.08448400;2022-11-20T14:01:28;7.60;99.90
17333;DHT22;8784;50.94667800;7.08448400;2022-11-20T14:03:57;7.50;99.90
17333;DHT22;8784;50.94667800;7.08448400;2022-11-20T14:06:26;7.50;99.90
17333;DHT22;8784;50.94667800;7.08448400;2022-11-20T14:08:55;7.50;99.90
17333;DHT22;8784;50.94667800;7.08448400;2022-11-20T14:11:24;7.50;99.90
17333;DHT22;8784;50.94667800;7.08448400;2022-11-20T14:13:57;7.50;99.90